<?xml version="1.0" encoding="UTF-8" standalone="no" ?>
<gpx xmlns="http://www.topografix.com/GPX/1/1" xmlns:xsi="http://www.w3.org/2001/XMLSchema-instance" xsi:schemaLocation="http://www.topografix.com/GPX/1/1 http://www.topografix.com/GPX/1/1/gpx.xsd" version="1.1" creator="VisuGPX - https://www.visugpx.com">
  <metadata>
    <name>via rhona THR</name>
    <desc><![CDATA[rando VTC Lyon Valence a aire sur plusieurs jours. a voir]]></desc>
  </metadata>
  <trk>
    <name><![CDATA[Geneve_Pont-Saint-Esprit-467km]]></name>
    <trkseg>
      <trkpt lat="45.75625" lon="4.82629">
        <ele>166.8000031</ele>
        <time>2013-04-23T08:11:57Z</time>
      </trkpt>
      <trkpt lat="45.75408" lon="4.82537">
        <ele>168.8000031</ele>
        <time>2013-04-23T08:13:29Z</time>
      </trkpt>
      <trkpt lat="45.75143" lon="4.82378">
        <ele>166.6000061</ele>
        <time>2013-04-23T08:14:22Z</time>
      </trkpt>
      <trkpt lat="45.75115" lon="4.82334">
        <ele>166.6000061</ele>
        <time>2013-04-23T08:14:47Z</time>
      </trkpt>
      <trkpt lat="45.75155" lon="4.82202">
        <ele>170.6000061</ele>
        <time>2013-04-23T08:15:17Z</time>
      </trkpt>
      <trkpt lat="45.75159" lon="4.82167">
        <ele>170.6000061</ele>
        <time>2013-04-23T08:15:29Z</time>
      </trkpt>
      <trkpt lat="45.75073" lon="4.81967">
        <ele>168.6000061</ele>
        <time>2013-04-23T08:17:00Z</time>
      </trkpt>
      <trkpt lat="45.74956" lon="4.8174">
        <ele>166.6000061</ele>
        <time>2013-04-23T08:17:38Z</time>
      </trkpt>
      <trkpt lat="45.74774" lon="4.81529">
        <ele>166.6000061</ele>
        <time>2013-04-23T08:19:23Z</time>
      </trkpt>
      <trkpt lat="45.74542" lon="4.81346">
        <ele>166.6000061</ele>
        <time>2013-04-23T08:20:10Z</time>
      </trkpt>
      <trkpt lat="45.74402" lon="4.81291">
        <ele>166.6000061</ele>
        <time>2013-04-23T08:20:36Z</time>
      </trkpt>
      <trkpt lat="45.73809" lon="4.81184">
        <ele>166.6000061</ele>
        <time>2013-04-23T08:22:26Z</time>
      </trkpt>
      <trkpt lat="45.73338" lon="4.81288">
        <ele>166.6000061</ele>
        <time>2013-04-23T08:23:51Z</time>
      </trkpt>
      <trkpt lat="45.73141" lon="4.81355">
        <ele>172.8000031</ele>
        <time>2013-04-23T08:24:40Z</time>
      </trkpt>
      <trkpt lat="45.73052" lon="4.8148">
        <ele>179</ele>
        <time>2013-04-23T08:26:36Z</time>
      </trkpt>
      <trkpt lat="45.7282" lon="4.81605">
        <ele>174</ele>
        <time>2013-04-23T08:28:32Z</time>
      </trkpt>
      <trkpt lat="45.71073" lon="4.82015">
        <ele>166.3999939</ele>
        <time>2013-04-23T08:33:41Z</time>
      </trkpt>
      <trkpt lat="45.70873" lon="4.82133">
        <ele>172.3999939</ele>
        <time>2013-04-23T08:34:29Z</time>
      </trkpt>
      <trkpt lat="45.70763" lon="4.82137">
        <ele>172.8000031</ele>
        <time>2013-04-23T08:34:53Z</time>
      </trkpt>
      <trkpt lat="45.70476" lon="4.82063">
        <ele>170.6000061</ele>
        <time>2013-04-23T08:35:55Z</time>
      </trkpt>
      <trkpt lat="45.70354" lon="4.82078">
        <ele>170.6000061</ele>
        <time>2013-04-23T08:36:18Z</time>
      </trkpt>
      <trkpt lat="45.69553" lon="4.8262">
        <ele>170.6000061</ele>
        <time>2013-04-23T08:39:07Z</time>
      </trkpt>
      <trkpt lat="45.695" lon="4.82607">
        <ele>170.6000061</ele>
        <time>2013-04-23T08:39:19Z</time>
      </trkpt>
      <trkpt lat="45.69408" lon="4.82724">
        <ele>172.8000031</ele>
        <time>2013-04-23T08:39:45Z</time>
      </trkpt>
      <trkpt lat="45.69391" lon="4.82736">
        <ele>172.8000031</ele>
        <time>2013-04-23T08:39:49Z</time>
      </trkpt>
      <trkpt lat="45.69184" lon="4.82743">
        <ele>170.8000031</ele>
        <time>2013-04-23T08:40:30Z</time>
      </trkpt>
      <trkpt lat="45.68967" lon="4.82694">
        <ele>170.8000031</ele>
        <time>2013-04-23T08:42:48Z</time>
      </trkpt>
      <trkpt lat="45.68727" lon="4.82678">
        <ele>169.6000061</ele>
        <time>2013-04-23T08:44:36Z</time>
      </trkpt>
      <trkpt lat="45.68413" lon="4.82773">
        <ele>166.6000061</ele>
        <time>2013-04-23T08:45:54Z</time>
      </trkpt>
      <trkpt lat="45.67845" lon="4.83137">
        <ele>166.6000061</ele>
        <time>2013-04-23T08:50:17Z</time>
      </trkpt>
      <trkpt lat="45.67444" lon="4.83068">
        <ele>173.1999969</ele>
        <time>2013-04-23T08:52:03Z</time>
      </trkpt>
      <trkpt lat="45.67316" lon="4.82997">
        <ele>179</ele>
        <time>2013-04-23T08:52:39Z</time>
      </trkpt>
      <trkpt lat="45.67156" lon="4.8289">
        <ele>179</ele>
        <time>2013-04-23T08:53:18Z</time>
      </trkpt>
      <trkpt lat="45.66911" lon="4.82839">
        <ele>183.1999969</ele>
        <time>2013-04-23T08:54:08Z</time>
      </trkpt>
      <trkpt lat="45.66747" lon="4.82825">
        <ele>181.1999969</ele>
        <time>2013-04-23T08:54:34Z</time>
      </trkpt>
      <trkpt lat="45.66518" lon="4.82622">
        <ele>181.1999969</ele>
        <time>2013-04-23T08:55:22Z</time>
      </trkpt>
      <trkpt lat="45.66367" lon="4.8256">
        <ele>181.1999969</ele>
        <time>2013-04-23T08:55:47Z</time>
      </trkpt>
      <trkpt lat="45.66096" lon="4.82353">
        <ele>179</ele>
        <time>2013-04-23T08:56:31Z</time>
      </trkpt>
      <trkpt lat="45.65587" lon="4.81749">
        <ele>189.1999969</ele>
        <time>2013-04-23T08:58:41Z</time>
      </trkpt>
      <trkpt lat="45.65508" lon="4.81579">
        <ele>187.1999969</ele>
        <time>2013-04-23T08:59:08Z</time>
      </trkpt>
      <trkpt lat="45.65404" lon="4.81562">
        <ele>185.6000061</ele>
        <time>2013-04-23T08:59:28Z</time>
      </trkpt>
      <trkpt lat="45.65356" lon="4.81513">
        <ele>189.3999939</ele>
        <time>2013-04-23T08:59:42Z</time>
      </trkpt>
      <trkpt lat="45.65236" lon="4.81356">
        <ele>187.3999939</ele>
        <time>2013-04-23T09:00:13Z</time>
      </trkpt>
      <trkpt lat="45.64983" lon="4.81206">
        <ele>181</ele>
        <time>2013-04-23T09:00:52Z</time>
      </trkpt>
      <trkpt lat="45.64766" lon="4.81191">
        <ele>176.8000031</ele>
        <time>2013-04-23T09:01:27Z</time>
      </trkpt>
      <trkpt lat="45.64543" lon="4.81077">
        <ele>178</ele>
        <time>2013-04-23T09:02:11Z</time>
      </trkpt>
      <trkpt lat="45.64475" lon="4.81011">
        <ele>180.8000031</ele>
        <time>2013-04-23T09:02:29Z</time>
      </trkpt>
      <trkpt lat="45.64244" lon="4.80976">
        <ele>185</ele>
        <time>2013-04-23T09:03:22Z</time>
      </trkpt>
      <trkpt lat="45.64088" lon="4.80814">
        <ele>189.1999969</ele>
        <time>2013-04-23T09:04:06Z</time>
      </trkpt>
      <trkpt lat="45.63875" lon="4.80708">
        <ele>195.1999969</ele>
        <time>2013-04-23T09:04:56Z</time>
      </trkpt>
      <trkpt lat="45.63643" lon="4.80614">
        <ele>195.1999969</ele>
        <time>2013-04-23T09:05:47Z</time>
      </trkpt>
      <trkpt lat="45.63601" lon="4.80555">
        <ele>192.8000031</ele>
        <time>2013-04-23T09:05:55Z</time>
      </trkpt>
      <trkpt lat="45.63531" lon="4.80575">
        <ele>191</ele>
        <time>2013-04-23T09:06:05Z</time>
      </trkpt>
      <trkpt lat="45.63402" lon="4.80432">
        <ele>189</ele>
        <time>2013-04-23T09:06:47Z</time>
      </trkpt>
      <trkpt lat="45.63333" lon="4.8041">
        <ele>189</ele>
        <time>2013-04-23T09:07:00Z</time>
      </trkpt>
      <trkpt lat="45.63084" lon="4.80396">
        <ele>180</ele>
        <time>2013-04-23T09:07:37Z</time>
      </trkpt>
      <trkpt lat="45.62923" lon="4.80352">
        <ele>178</ele>
        <time>2013-04-23T09:08:03Z</time>
      </trkpt>
      <trkpt lat="45.62859" lon="4.80398">
        <ele>181.8000031</ele>
        <time>2013-04-23T09:08:20Z</time>
      </trkpt>
      <trkpt lat="45.62576" lon="4.80319">
        <ele>186</ele>
        <time>2013-04-23T09:09:23Z</time>
      </trkpt>
      <trkpt lat="45.62328" lon="4.80253">
        <ele>186</ele>
        <time>2013-04-23T09:10:41Z</time>
      </trkpt>
      <trkpt lat="45.61853" lon="4.80111">
        <ele>171.1999969</ele>
        <time>2013-04-23T09:11:49Z</time>
      </trkpt>
      <trkpt lat="45.61674" lon="4.79978">
        <ele>171.1999969</ele>
        <time>2013-04-23T09:12:26Z</time>
      </trkpt>
      <trkpt lat="45.61235" lon="4.798">
        <ele>171.1999969</ele>
        <time>2013-04-23T09:13:55Z</time>
      </trkpt>
      <trkpt lat="45.61139" lon="4.79748">
        <ele>167.8000031</ele>
        <time>2013-04-23T09:14:12Z</time>
      </trkpt>
      <trkpt lat="45.60901" lon="4.79529">
        <ele>164.8000031</ele>
        <time>2013-04-23T09:14:56Z</time>
      </trkpt>
      <trkpt lat="45.60749" lon="4.7932">
        <ele>162.8000031</ele>
        <time>2013-04-23T09:15:41Z</time>
      </trkpt>
      <trkpt lat="45.60628" lon="4.78968">
        <ele>162.8000031</ele>
        <time>2013-04-23T09:16:39Z</time>
      </trkpt>
      <trkpt lat="45.60571" lon="4.78985">
        <ele>162.8000031</ele>
        <time>2013-04-23T09:16:51Z</time>
      </trkpt>
      <trkpt lat="45.60492" lon="4.79114">
        <ele>169</ele>
        <time>2013-04-23T09:17:25Z</time>
      </trkpt>
      <trkpt lat="45.60359" lon="4.79112">
        <ele>169</ele>
        <time>2013-04-23T09:17:59Z</time>
      </trkpt>
      <trkpt lat="45.6019" lon="4.78753">
        <ele>162.6000061</ele>
        <time>2013-04-23T09:18:48Z</time>
      </trkpt>
      <trkpt lat="45.59976" lon="4.78579">
        <ele>162.6000061</ele>
        <time>2013-04-23T09:19:42Z</time>
      </trkpt>
      <trkpt lat="45.59864" lon="4.78408">
        <ele>162.6000061</ele>
        <time>2013-04-23T09:20:02Z</time>
      </trkpt>
      <trkpt lat="45.59711" lon="4.78112">
        <ele>162.6000061</ele>
        <time>2013-04-23T09:20:56Z</time>
      </trkpt>
      <trkpt lat="45.59409" lon="4.77381">
        <ele>162.6000061</ele>
        <time>2013-04-23T09:22:56Z</time>
      </trkpt>
      <trkpt lat="45.59262" lon="4.77273">
        <ele>162.6000061</ele>
        <time>2013-04-23T09:23:35Z</time>
      </trkpt>
      <trkpt lat="45.59147" lon="4.77308">
        <ele>160.6000061</ele>
        <time>2013-04-23T09:24:01Z</time>
      </trkpt>
      <trkpt lat="45.59107" lon="4.7745">
        <ele>160.6000061</ele>
        <time>2013-04-23T09:29:01Z</time>
      </trkpt>
      <trkpt lat="45.59047" lon="4.77469">
        <ele>160.6000061</ele>
        <time>2013-04-23T09:29:19Z</time>
      </trkpt>
      <trkpt lat="45.58995" lon="4.77583">
        <ele>160.6000061</ele>
        <time>2013-04-23T09:29:44Z</time>
      </trkpt>
      <trkpt lat="45.58656" lon="4.77429">
        <ele>160.6000061</ele>
        <time>2013-04-23T09:32:46Z</time>
      </trkpt>
      <trkpt lat="45.5857" lon="4.77483">
        <ele>160.6000061</ele>
        <time>2013-04-23T09:33:58Z</time>
      </trkpt>
      <trkpt lat="45.58421" lon="4.7765">
        <ele>155</ele>
      </trkpt>
      <trkpt lat="45.58225" lon="4.7775">
        <ele>160.6000061</ele>
        <time>2013-04-23T09:44:38Z</time>
      </trkpt>
      <trkpt lat="45.58058" lon="4.77891">
        <ele>165.1999969</ele>
        <time>2013-04-23T09:52:01Z</time>
      </trkpt>
      <trkpt lat="45.57816" lon="4.78548">
        <ele>168.6000061</ele>
        <time>2013-04-23T09:55:42Z</time>
      </trkpt>
      <trkpt lat="45.57624" lon="4.78742">
        <ele>169.6000061</ele>
        <time>2013-04-23T09:55:44Z</time>
      </trkpt>
      <trkpt lat="45.57456" lon="4.79001">
        <ele>171.6000061</ele>
        <time>2013-04-23T09:56:01Z</time>
      </trkpt>
      <trkpt lat="45.57284" lon="4.79278">
        <ele>169.6000061</ele>
        <time>2013-04-23T09:56:59Z</time>
      </trkpt>
      <trkpt lat="45.57184" lon="4.7935">
        <ele>173.8000031</ele>
        <time>2013-04-23T09:57:29Z</time>
      </trkpt>
      <trkpt lat="45.57131" lon="4.79349">
        <ele>173.8000031</ele>
        <time>2013-04-23T09:57:44Z</time>
      </trkpt>
      <trkpt lat="45.57013" lon="4.79473">
        <ele>173.8000031</ele>
        <time>2013-04-23T09:58:13Z</time>
      </trkpt>
      <trkpt lat="45.56605" lon="4.7976">
        <ele>173.8000031</ele>
        <time>2013-04-23T09:59:49Z</time>
      </trkpt>
      <trkpt lat="45.56587" lon="4.79888">
        <ele>173.8000031</ele>
        <time>2013-04-23T10:00:15Z</time>
      </trkpt>
      <trkpt lat="45.56544" lon="4.80002">
        <ele>170.6000061</ele>
        <time>2013-04-23T10:00:34Z</time>
      </trkpt>
      <trkpt lat="45.56361" lon="4.80211">
        <ele>167.6000061</ele>
        <time>2013-04-23T10:01:16Z</time>
      </trkpt>
      <trkpt lat="45.56299" lon="4.8027">
        <ele>165.6000061</ele>
        <time>2013-04-23T10:02:23Z</time>
      </trkpt>
      <trkpt lat="45.56244" lon="4.8043">
        <ele>165.6000061</ele>
        <time>2013-04-23T10:02:55Z</time>
      </trkpt>
      <trkpt lat="45.55985" lon="4.80564">
        <ele>169.8000031</ele>
        <time>2013-04-23T10:04:11Z</time>
      </trkpt>
      <trkpt lat="45.56048" lon="4.80829">
        <ele>164.1999969</ele>
        <time>2013-04-23T10:04:52Z</time>
      </trkpt>
      <trkpt lat="45.56106" lon="4.80945">
        <ele>161.1999969</ele>
        <time>2013-04-23T10:05:51Z</time>
      </trkpt>
      <trkpt lat="45.56136" lon="4.81205">
        <ele>161.1999969</ele>
        <time>2013-04-23T10:09:23Z</time>
      </trkpt>
      <trkpt lat="45.55543" lon="4.81628">
        <ele>161.1999969</ele>
        <time>2013-04-23T10:11:45Z</time>
      </trkpt>
      <trkpt lat="45.5529" lon="4.82015">
        <ele>161.1999969</ele>
        <time>2013-04-23T10:13:01Z</time>
      </trkpt>
      <trkpt lat="45.55191" lon="4.82139">
        <ele>161.1999969</ele>
        <time>2013-04-23T10:13:27Z</time>
      </trkpt>
      <trkpt lat="45.55044" lon="4.82381">
        <ele>161.1999969</ele>
        <time>2013-04-23T10:14:24Z</time>
      </trkpt>
      <trkpt lat="45.54709" lon="4.82686">
        <ele>161.1999969</ele>
        <time>2013-04-23T10:15:43Z</time>
      </trkpt>
      <trkpt lat="45.54668" lon="4.82925">
        <ele>161.1999969</ele>
        <time>2013-04-23T10:16:29Z</time>
      </trkpt>
      <trkpt lat="45.54429" lon="4.83278">
        <ele>161.1999969</ele>
        <time>2013-04-23T10:17:52Z</time>
      </trkpt>
      <trkpt lat="45.54265" lon="4.83612">
        <ele>161.1999969</ele>
        <time>2013-04-23T10:18:50Z</time>
      </trkpt>
      <trkpt lat="45.54163" lon="4.83916">
        <ele>159.1999969</ele>
        <time>2013-04-23T10:19:35Z</time>
      </trkpt>
      <trkpt lat="45.54068" lon="4.84343">
        <ele>159.1999969</ele>
        <time>2013-04-23T10:20:44Z</time>
      </trkpt>
      <trkpt lat="45.53942" lon="4.85373">
        <ele>159.1999969</ele>
        <time>2013-04-23T10:24:00Z</time>
      </trkpt>
      <trkpt lat="45.53919" lon="4.85483">
        <ele>108</ele>
        <time>2013-04-23T11:20:23Z</time>
      </trkpt>
      <trkpt lat="45.53832" lon="4.85462">
        <ele>157.1999969</ele>
        <time>2013-04-23T11:21:51Z</time>
      </trkpt>
      <trkpt lat="45.53725" lon="4.86138">
        <ele>159</ele>
        <time>2013-04-23T11:25:02Z</time>
      </trkpt>
      <trkpt lat="45.53477" lon="4.86792">
        <ele>159</ele>
        <time>2013-04-23T11:27:14Z</time>
      </trkpt>
      <trkpt lat="45.53319" lon="4.87012">
        <ele>159</ele>
        <time>2013-04-23T11:28:09Z</time>
      </trkpt>
      <trkpt lat="45.53115" lon="4.8717">
        <ele>159</ele>
        <time>2013-04-23T11:30:31Z</time>
      </trkpt>
      <trkpt lat="45.52881" lon="4.87131">
        <ele>159</ele>
        <time>2013-04-23T11:32:06Z</time>
      </trkpt>
      <trkpt lat="45.52621" lon="4.86965">
        <ele>159</ele>
        <time>2013-04-23T11:33:27Z</time>
      </trkpt>
      <trkpt lat="45.52407" lon="4.86798">
        <ele>155.8000031</ele>
        <time>2013-04-23T12:09:37Z</time>
      </trkpt>
      <trkpt lat="45.5231" lon="4.86676">
        <ele>155.8000031</ele>
        <time>2013-04-23T12:10:06Z</time>
      </trkpt>
      <trkpt lat="45.52274" lon="4.86612">
        <ele>155.8000031</ele>
        <time>2013-04-23T12:10:19Z</time>
      </trkpt>
      <trkpt lat="45.51731" lon="4.86012">
        <ele>155.8000031</ele>
        <time>2013-04-23T12:13:10Z</time>
      </trkpt>
      <trkpt lat="45.51406" lon="4.85583">
        <ele>155.8000031</ele>
        <time>2013-04-23T12:14:33Z</time>
      </trkpt>
      <trkpt lat="45.5134" lon="4.85423">
        <ele>155.8000031</ele>
        <time>2013-04-23T12:15:01Z</time>
      </trkpt>
      <trkpt lat="45.51288" lon="4.85331">
        <ele>155.8000031</ele>
        <time>2013-04-23T12:15:19Z</time>
      </trkpt>
      <trkpt lat="45.51237" lon="4.85348">
        <ele>155.8000031</ele>
        <time>2013-04-23T12:15:39Z</time>
      </trkpt>
      <trkpt lat="45.51186" lon="4.85281">
        <ele>157.8000031</ele>
        <time>2013-04-23T12:17:58Z</time>
      </trkpt>
      <trkpt lat="45.50569" lon="4.84454">
        <ele>157.8000031</ele>
        <time>2013-04-23T12:21:29Z</time>
      </trkpt>
      <trkpt lat="45.50237" lon="4.84049">
        <ele>157.8000031</ele>
        <time>2013-04-23T12:22:51Z</time>
      </trkpt>
      <trkpt lat="45.50158" lon="4.83911">
        <ele>157.8000031</ele>
        <time>2013-04-23T12:23:15Z</time>
      </trkpt>
      <trkpt lat="45.50149" lon="4.83882">
        <ele>157.8000031</ele>
        <time>2013-04-23T12:23:20Z</time>
      </trkpt>
      <trkpt lat="45.5016" lon="4.83858">
        <ele>157.8000031</ele>
        <time>2013-04-23T12:23:24Z</time>
      </trkpt>
      <trkpt lat="45.50176" lon="4.83853">
        <ele>155.8000031</ele>
        <time>2013-04-23T12:23:30Z</time>
      </trkpt>
      <trkpt lat="45.50183" lon="4.83813">
        <ele>155.8000031</ele>
        <time>2013-04-23T12:23:38Z</time>
      </trkpt>
      <trkpt lat="45.50135" lon="4.83675">
        <ele>155.8000031</ele>
        <time>2013-04-23T12:24:01Z</time>
      </trkpt>
      <trkpt lat="45.50121" lon="4.83635">
        <ele>153.6000061</ele>
        <time>2013-04-23T12:24:08Z</time>
      </trkpt>
      <trkpt lat="45.50011" lon="4.83206">
        <ele>153.6000061</ele>
        <time>2013-04-23T12:32:17Z</time>
      </trkpt>
      <trkpt lat="45.49939" lon="4.83045">
        <ele>153.6000061</ele>
        <time>2013-04-23T12:32:45Z</time>
      </trkpt>
      <trkpt lat="45.49668" lon="4.82591">
        <ele>153.6000061</ele>
        <time>2013-04-23T12:34:28Z</time>
      </trkpt>
      <trkpt lat="45.49765" lon="4.82468">
        <ele>153.6000061</ele>
        <time>2013-04-23T12:35:13Z</time>
      </trkpt>
      <trkpt lat="45.49685" lon="4.82321">
        <ele>155.8000031</ele>
        <time>2013-04-23T12:35:46Z</time>
      </trkpt>
      <trkpt lat="45.49636" lon="4.82246">
        <ele>155.8000031</ele>
        <time>2013-04-23T12:35:59Z</time>
      </trkpt>
      <trkpt lat="45.49607" lon="4.82243">
        <ele>153.6000061</ele>
        <time>2013-04-23T12:36:32Z</time>
      </trkpt>
      <trkpt lat="45.4943" lon="4.82117">
        <ele>153.6000061</ele>
        <time>2013-04-23T12:39:48Z</time>
      </trkpt>
      <trkpt lat="45.49317" lon="4.82009">
        <ele>153.6000061</ele>
        <time>2013-04-23T12:40:23Z</time>
      </trkpt>
      <trkpt lat="45.49312" lon="4.82006">
        <ele>151.3999939</ele>
        <time>2013-04-23T12:40:42Z</time>
      </trkpt>
      <trkpt lat="45.49265" lon="4.81929">
        <ele>151.3999939</ele>
        <time>2013-04-23T12:41:01Z</time>
      </trkpt>
      <trkpt lat="45.48975" lon="4.81714">
        <ele>153.3999939</ele>
        <time>2013-04-23T12:42:10Z</time>
      </trkpt>
      <trkpt lat="45.48793" lon="4.8154">
        <ele>153.3999939</ele>
        <time>2013-04-23T12:43:23Z</time>
      </trkpt>
      <trkpt lat="45.48699" lon="4.81465">
        <ele>127</ele>
        <time>2013-04-23T13:07:04Z</time>
      </trkpt>
      <trkpt lat="45.48645" lon="4.81359">
        <ele>138.6000061</ele>
        <time>2013-04-23T13:07:21Z</time>
      </trkpt>
      <trkpt lat="45.48615" lon="4.813">
        <ele>141.3999939</ele>
        <time>2013-04-23T13:07:30Z</time>
      </trkpt>
      <trkpt lat="45.48597" lon="4.81249">
        <ele>143.8000031</ele>
        <time>2013-04-23T13:07:38Z</time>
      </trkpt>
      <trkpt lat="45.48682" lon="4.81146">
        <ele>148.8000031</ele>
        <time>2013-04-23T13:07:58Z</time>
      </trkpt>
      <trkpt lat="45.48637" lon="4.81041">
        <ele>151</ele>
        <time>2013-04-23T13:08:14Z</time>
      </trkpt>
      <trkpt lat="45.48636" lon="4.80952">
        <ele>154</ele>
        <time>2013-04-23T13:08:25Z</time>
      </trkpt>
      <trkpt lat="45.48656" lon="4.80756">
        <ele>154</ele>
        <time>2013-04-23T13:08:47Z</time>
      </trkpt>
      <trkpt lat="45.48642" lon="4.80672">
        <ele>154</ele>
        <time>2013-04-23T13:08:57Z</time>
      </trkpt>
      <trkpt lat="45.48448" lon="4.80095">
        <ele>152.6000061</ele>
        <time>2013-04-23T13:10:18Z</time>
      </trkpt>
      <trkpt lat="45.48329" lon="4.79843">
        <ele>151.6000061</ele>
        <time>2013-04-23T13:11:03Z</time>
      </trkpt>
      <trkpt lat="45.48377" lon="4.79446">
        <ele>153.6000061</ele>
        <time>2013-04-23T13:12:05Z</time>
      </trkpt>
      <trkpt lat="45.48334" lon="4.79246">
        <ele>153.6000061</ele>
        <time>2013-04-23T13:12:37Z</time>
      </trkpt>
      <trkpt lat="45.48284" lon="4.78871">
        <ele>153.6000061</ele>
        <time>2013-04-23T13:13:29Z</time>
      </trkpt>
      <trkpt lat="45.48057" lon="4.78827">
        <ele>151.3999939</ele>
        <time>2013-04-23T13:15:07Z</time>
      </trkpt>
      <trkpt lat="45.48078" lon="4.78725">
        <ele>151.3999939</ele>
        <time>2013-04-23T13:15:20Z</time>
      </trkpt>
      <trkpt lat="45.48067" lon="4.78632">
        <ele>151.3999939</ele>
        <time>2013-04-23T13:15:32Z</time>
      </trkpt>
      <trkpt lat="45.48045" lon="4.78566">
        <ele>151.3999939</ele>
        <time>2013-04-23T13:15:41Z</time>
      </trkpt>
      <trkpt lat="45.47946" lon="4.78422">
        <ele>151.3999939</ele>
        <time>2013-04-23T13:16:09Z</time>
      </trkpt>
      <trkpt lat="45.47959" lon="4.78369">
        <ele>151.3999939</ele>
        <time>2013-04-23T13:18:25Z</time>
      </trkpt>
      <trkpt lat="45.47933" lon="4.78304">
        <ele>151.3999939</ele>
        <time>2013-04-23T13:18:37Z</time>
      </trkpt>
      <trkpt lat="45.47847" lon="4.7824">
        <ele>151.3999939</ele>
        <time>2013-04-23T13:18:56Z</time>
      </trkpt>
      <trkpt lat="45.47677" lon="4.78188">
        <ele>151.3999939</ele>
        <time>2013-04-23T13:19:27Z</time>
      </trkpt>
      <trkpt lat="45.47667" lon="4.78173">
        <ele>151.3999939</ele>
        <time>2013-04-23T13:19:30Z</time>
      </trkpt>
      <trkpt lat="45.47671" lon="4.78101">
        <ele>151.3999939</ele>
        <time>2013-04-23T13:19:40Z</time>
      </trkpt>
      <trkpt lat="45.47641" lon="4.78075">
        <ele>151.3999939</ele>
        <time>2013-04-23T13:19:47Z</time>
      </trkpt>
      <trkpt lat="45.47426" lon="4.77929">
        <ele>149.3999939</ele>
        <time>2013-04-23T13:21:07Z</time>
      </trkpt>
      <trkpt lat="45.47139" lon="4.77755">
        <ele>151.8000031</ele>
        <time>2013-04-23T13:23:25Z</time>
      </trkpt>
      <trkpt lat="45.47091" lon="4.77785">
        <ele>153.3999939</ele>
        <time>2013-04-23T13:23:34Z</time>
      </trkpt>
      <trkpt lat="45.47079" lon="4.77787">
        <ele>153.3999939</ele>
        <time>2013-04-23T13:23:38Z</time>
      </trkpt>
      <trkpt lat="45.47062" lon="4.77754">
        <ele>153.3999939</ele>
        <time>2013-04-23T13:24:38Z</time>
      </trkpt>
      <trkpt lat="45.46969" lon="4.77858">
        <ele>151.3999939</ele>
        <time>2013-04-23T13:25:28Z</time>
      </trkpt>
      <trkpt lat="45.4675" lon="4.77892">
        <ele>151.3999939</ele>
        <time>2013-04-23T13:26:20Z</time>
      </trkpt>
      <trkpt lat="45.46598" lon="4.77716">
        <ele>151.3999939</ele>
        <time>2013-04-23T13:27:48Z</time>
      </trkpt>
      <trkpt lat="45.46499" lon="4.77865">
        <ele>151.3999939</ele>
        <time>2013-04-23T13:28:37Z</time>
      </trkpt>
      <trkpt lat="45.46485" lon="4.77934">
        <ele>151.3999939</ele>
        <time>2013-04-23T13:28:51Z</time>
      </trkpt>
      <trkpt lat="45.46461" lon="4.77941">
        <ele>151.3999939</ele>
        <time>2013-04-23T13:29:00Z</time>
      </trkpt>
      <trkpt lat="45.46376" lon="4.77917">
        <ele>151.3999939</ele>
        <time>2013-04-23T13:29:19Z</time>
      </trkpt>
      <trkpt lat="45.46278" lon="4.77861">
        <ele>151.3999939</ele>
        <time>2013-04-23T13:29:40Z</time>
      </trkpt>
      <trkpt lat="45.46133" lon="4.77717">
        <ele>151.3999939</ele>
        <time>2013-04-23T13:30:13Z</time>
      </trkpt>
      <trkpt lat="45.46052" lon="4.77658">
        <ele>151.3999939</ele>
        <time>2013-04-23T13:30:29Z</time>
      </trkpt>
      <trkpt lat="45.46018" lon="4.77455">
        <ele>151.3999939</ele>
        <time>2013-04-23T13:31:01Z</time>
      </trkpt>
      <trkpt lat="45.45928" lon="4.77215">
        <ele>151.3999939</ele>
        <time>2013-04-23T13:31:53Z</time>
      </trkpt>
      <trkpt lat="45.45812" lon="4.77129">
        <ele>151.3999939</ele>
        <time>2013-04-23T13:32:36Z</time>
      </trkpt>
      <trkpt lat="45.45783" lon="4.77086">
        <ele>151.3999939</ele>
        <time>2013-04-23T13:32:49Z</time>
      </trkpt>
      <trkpt lat="45.45793" lon="4.76944">
        <ele>151.3999939</ele>
        <time>2013-04-23T13:33:45Z</time>
      </trkpt>
      <trkpt lat="45.45782" lon="4.76811">
        <ele>149.3999939</ele>
        <time>2013-04-23T13:35:54Z</time>
      </trkpt>
      <trkpt lat="45.45829" lon="4.765">
        <ele>149.3999939</ele>
        <time>2013-04-23T13:37:47Z</time>
      </trkpt>
      <trkpt lat="45.45794" lon="4.76163">
        <ele>149.3999939</ele>
        <time>2013-04-23T13:40:31Z</time>
      </trkpt>
      <trkpt lat="45.45824" lon="4.76161">
        <ele>149.3999939</ele>
        <time>2013-04-23T13:41:47Z</time>
      </trkpt>
      <trkpt lat="45.4587" lon="4.7608">
        <ele>151.3999939</ele>
        <time>2013-04-23T13:42:17Z</time>
      </trkpt>
      <trkpt lat="45.4583" lon="4.75985">
        <ele>151.3999939</ele>
        <time>2013-04-23T13:42:44Z</time>
      </trkpt>
      <trkpt lat="45.45762" lon="4.75991">
        <ele>151.3999939</ele>
        <time>2013-04-23T13:43:16Z</time>
      </trkpt>
      <trkpt lat="45.45715" lon="4.75935">
        <ele>151.3999939</ele>
        <time>2013-04-23T13:44:02Z</time>
      </trkpt>
      <trkpt lat="45.45674" lon="4.75738">
        <ele>151.3999939</ele>
        <time>2013-04-23T13:44:40Z</time>
      </trkpt>
      <trkpt lat="45.45591" lon="4.75531">
        <ele>151.3999939</ele>
        <time>2013-04-23T13:45:25Z</time>
      </trkpt>
      <trkpt lat="45.45543" lon="4.75471">
        <ele>151.3999939</ele>
        <time>2013-04-23T13:45:40Z</time>
      </trkpt>
      <trkpt lat="45.45496" lon="4.75436">
        <ele>151.3999939</ele>
        <time>2013-04-23T13:45:52Z</time>
      </trkpt>
      <trkpt lat="45.4542" lon="4.75419">
        <ele>151.3999939</ele>
        <time>2013-04-23T13:46:13Z</time>
      </trkpt>
      <trkpt lat="45.45011" lon="4.75373">
        <ele>151.3999939</ele>
        <time>2013-04-23T13:47:42Z</time>
      </trkpt>
      <trkpt lat="45.44831" lon="4.75374">
        <ele>151.3999939</ele>
        <time>2013-04-23T13:48:17Z</time>
      </trkpt>
      <trkpt lat="45.44655" lon="4.75422">
        <ele>151.3999939</ele>
        <time>2013-04-23T13:48:49Z</time>
      </trkpt>
      <trkpt lat="45.44498" lon="4.75491">
        <ele>151.3999939</ele>
        <time>2013-04-23T13:49:54Z</time>
      </trkpt>
      <trkpt lat="45.44392" lon="4.75499">
        <ele>151.3999939</ele>
        <time>2013-04-23T13:50:11Z</time>
      </trkpt>
      <trkpt lat="45.44292" lon="4.75564">
        <ele>151.3999939</ele>
        <time>2013-04-23T13:50:27Z</time>
      </trkpt>
      <trkpt lat="45.4415" lon="4.75534">
        <ele>151.3999939</ele>
        <time>2013-04-23T13:50:51Z</time>
      </trkpt>
      <trkpt lat="45.44126" lon="4.75552">
        <ele>151.3999939</ele>
        <time>2013-04-23T13:50:56Z</time>
      </trkpt>
      <trkpt lat="45.44069" lon="4.75653">
        <ele>151.3999939</ele>
        <time>2013-04-23T13:51:18Z</time>
      </trkpt>
      <trkpt lat="45.44018" lon="4.75676">
        <ele>151.3999939</ele>
        <time>2013-04-23T13:51:32Z</time>
      </trkpt>
      <trkpt lat="45.43831" lon="4.75645">
        <ele>151.3999939</ele>
        <time>2013-04-23T13:52:03Z</time>
      </trkpt>
      <trkpt lat="45.43755" lon="4.7568">
        <ele>151.3999939</ele>
        <time>2013-04-23T13:52:16Z</time>
      </trkpt>
      <trkpt lat="45.43675" lon="4.75752">
        <ele>151.3999939</ele>
        <time>2013-04-23T13:52:32Z</time>
      </trkpt>
      <trkpt lat="45.43587" lon="4.75755">
        <ele>151.3999939</ele>
        <time>2013-04-23T13:52:46Z</time>
      </trkpt>
      <trkpt lat="45.43501" lon="4.75729">
        <ele>151.3999939</ele>
        <time>2013-04-23T13:52:59Z</time>
      </trkpt>
      <trkpt lat="45.43446" lon="4.75697">
        <ele>151.3999939</ele>
        <time>2013-04-23T13:53:09Z</time>
      </trkpt>
      <trkpt lat="45.43398" lon="4.75631">
        <ele>151.3999939</ele>
        <time>2013-04-23T13:53:21Z</time>
      </trkpt>
      <trkpt lat="45.43257" lon="4.75537">
        <ele>151.3999939</ele>
        <time>2013-04-23T13:53:50Z</time>
      </trkpt>
      <trkpt lat="45.4316" lon="4.75441">
        <ele>151.3999939</ele>
        <time>2013-04-23T13:54:43Z</time>
      </trkpt>
      <trkpt lat="45.42931" lon="4.7509">
        <ele>151.3999939</ele>
        <time>2013-04-23T13:55:51Z</time>
      </trkpt>
      <trkpt lat="45.42289" lon="4.74311">
        <ele>151.3999939</ele>
        <time>2013-04-23T13:58:01Z</time>
      </trkpt>
      <trkpt lat="45.42212" lon="4.74233">
        <ele>151.3999939</ele>
        <time>2013-04-23T13:58:15Z</time>
      </trkpt>
      <trkpt lat="45.42092" lon="4.74147">
        <ele>151.3999939</ele>
        <time>2013-04-23T13:58:35Z</time>
      </trkpt>
      <trkpt lat="45.41873" lon="4.74054">
        <ele>151.3999939</ele>
        <time>2013-04-23T13:59:09Z</time>
      </trkpt>
      <trkpt lat="45.41631" lon="4.7401">
        <ele>151.3999939</ele>
        <time>2013-04-23T13:59:47Z</time>
      </trkpt>
      <trkpt lat="45.41494" lon="4.74015">
        <ele>151.3999939</ele>
        <time>2013-04-23T14:00:10Z</time>
      </trkpt>
      <trkpt lat="45.4148" lon="4.74">
        <ele>151.3999939</ele>
        <time>2013-04-23T14:00:13Z</time>
      </trkpt>
      <trkpt lat="45.41443" lon="4.73767">
        <ele>151.3999939</ele>
        <time>2013-04-23T14:00:45Z</time>
      </trkpt>
      <trkpt lat="45.41421" lon="4.7375">
        <ele>151.3999939</ele>
        <time>2013-04-23T14:00:53Z</time>
      </trkpt>
      <trkpt lat="45.41406" lon="4.73765">
        <ele>151.3999939</ele>
        <time>2013-04-23T14:01:01Z</time>
      </trkpt>
      <trkpt lat="45.41423" lon="4.73866">
        <ele>151.3999939</ele>
        <time>2013-04-23T14:01:15Z</time>
      </trkpt>
      <trkpt lat="45.41421" lon="4.7398">
        <ele>151.3999939</ele>
        <time>2013-04-23T14:01:29Z</time>
      </trkpt>
      <trkpt lat="45.41399" lon="4.74027">
        <ele>151.3999939</ele>
        <time>2013-04-23T14:01:38Z</time>
      </trkpt>
      <trkpt lat="45.41236" lon="4.74057">
        <ele>151.3999939</ele>
        <time>2013-04-23T14:02:08Z</time>
      </trkpt>
      <trkpt lat="45.41221" lon="4.74007">
        <ele>151.3999939</ele>
        <time>2013-04-23T14:02:15Z</time>
      </trkpt>
      <trkpt lat="45.41202" lon="4.73994">
        <ele>151.3999939</ele>
        <time>2013-04-23T14:02:19Z</time>
      </trkpt>
      <trkpt lat="45.41019" lon="4.74042">
        <ele>149.3999939</ele>
        <time>2013-04-23T14:02:49Z</time>
      </trkpt>
      <trkpt lat="45.40817" lon="4.74149">
        <ele>149.3999939</ele>
        <time>2013-04-23T14:03:22Z</time>
      </trkpt>
      <trkpt lat="45.40511" lon="4.74359">
        <ele>147.3999939</ele>
        <time>2013-04-23T14:04:14Z</time>
      </trkpt>
      <trkpt lat="45.40103" lon="4.74756">
        <ele>147.3999939</ele>
        <time>2013-04-23T14:05:34Z</time>
      </trkpt>
      <trkpt lat="45.40108" lon="4.74828">
        <ele>148.6000061</ele>
        <time>2013-04-23T14:05:44Z</time>
      </trkpt>
      <trkpt lat="45.40071" lon="4.74888">
        <ele>151.6000061</ele>
        <time>2013-04-23T14:05:56Z</time>
      </trkpt>
      <trkpt lat="45.39735" lon="4.75192">
        <ele>151.6000061</ele>
        <time>2013-04-23T14:07:07Z</time>
      </trkpt>
      <trkpt lat="45.39632" lon="4.75229">
        <ele>151.6000061</ele>
        <time>2013-04-23T14:07:25Z</time>
      </trkpt>
      <trkpt lat="45.39574" lon="4.75269">
        <ele>151.6000061</ele>
        <time>2013-04-23T14:07:36Z</time>
      </trkpt>
      <trkpt lat="45.39534" lon="4.75317">
        <ele>151.6000061</ele>
        <time>2013-04-23T14:07:45Z</time>
      </trkpt>
      <trkpt lat="45.3934" lon="4.75391">
        <ele>151.6000061</ele>
        <time>2013-04-23T14:08:19Z</time>
      </trkpt>
      <trkpt lat="45.39246" lon="4.75461">
        <ele>151.6000061</ele>
        <time>2013-04-23T14:08:37Z</time>
      </trkpt>
      <trkpt lat="45.39127" lon="4.75483">
        <ele>151.6000061</ele>
        <time>2013-04-23T14:08:59Z</time>
      </trkpt>
      <trkpt lat="45.39007" lon="4.75548">
        <ele>151.6000061</ele>
        <time>2013-04-23T14:09:21Z</time>
      </trkpt>
      <trkpt lat="45.38695" lon="4.75599">
        <ele>151.6000061</ele>
        <time>2013-04-23T14:10:14Z</time>
      </trkpt>
      <trkpt lat="45.38508" lon="4.7556">
        <ele>151.6000061</ele>
        <time>2013-04-23T14:10:46Z</time>
      </trkpt>
      <trkpt lat="45.38303" lon="4.75427">
        <ele>151.6000061</ele>
        <time>2013-04-23T14:11:24Z</time>
      </trkpt>
      <trkpt lat="45.3827" lon="4.7542">
        <ele>151.6000061</ele>
        <time>2013-04-23T14:11:30Z</time>
      </trkpt>
      <trkpt lat="45.3814" lon="4.75523">
        <ele>151.6000061</ele>
        <time>2013-04-23T14:12:02Z</time>
      </trkpt>
      <trkpt lat="45.38132" lon="4.75629">
        <ele>151.6000061</ele>
        <time>2013-04-23T14:13:19Z</time>
      </trkpt>
      <trkpt lat="45.38111" lon="4.75587">
        <ele>153.6000061</ele>
        <time>2013-04-23T14:14:03Z</time>
      </trkpt>
      <trkpt lat="45.38085" lon="4.75666">
        <ele>155.6000061</ele>
        <time>2013-04-23T14:14:52Z</time>
      </trkpt>
      <trkpt lat="45.38036" lon="4.75953">
        <ele>155.6000061</ele>
        <time>2013-04-23T14:16:22Z</time>
      </trkpt>
      <trkpt lat="45.38019" lon="4.75988">
        <ele>155.6000061</ele>
        <time>2013-04-23T14:16:27Z</time>
      </trkpt>
      <trkpt lat="45.37557" lon="4.76275">
        <ele>149</ele>
        <time>2013-04-23T14:17:37Z</time>
      </trkpt>
      <trkpt lat="45.37281" lon="4.7648">
        <ele>149</ele>
        <time>2013-04-23T14:18:22Z</time>
      </trkpt>
      <trkpt lat="45.35697" lon="4.77922">
        <ele>146.8000031</ele>
        <time>2013-04-23T14:23:48Z</time>
      </trkpt>
      <trkpt lat="45.35509" lon="4.78058">
        <ele>146.8000031</ele>
        <time>2013-04-23T14:24:26Z</time>
      </trkpt>
      <trkpt lat="45.35338" lon="4.78137">
        <ele>146.8000031</ele>
        <time>2013-04-23T14:25:01Z</time>
      </trkpt>
      <trkpt lat="45.35298" lon="4.78208">
        <ele>146.8000031</ele>
        <time>2013-04-23T14:25:20Z</time>
      </trkpt>
      <trkpt lat="45.35274" lon="4.78216">
        <ele>146.8000031</ele>
        <time>2013-04-23T14:25:25Z</time>
      </trkpt>
      <trkpt lat="45.35232" lon="4.78177">
        <ele>146.8000031</ele>
        <time>2013-04-23T14:25:34Z</time>
      </trkpt>
      <trkpt lat="45.35184" lon="4.78175">
        <ele>146.8000031</ele>
        <time>2013-04-23T14:25:44Z</time>
      </trkpt>
      <trkpt lat="45.34092" lon="4.78346">
        <ele>146.8000031</ele>
        <time>2013-04-23T14:28:49Z</time>
      </trkpt>
      <trkpt lat="45.34064" lon="4.78357">
        <ele>146.8000031</ele>
        <time>2013-04-23T14:28:55Z</time>
      </trkpt>
      <trkpt lat="45.34046" lon="4.78432">
        <ele>149.1999969</ele>
        <time>2013-04-23T14:29:11Z</time>
      </trkpt>
      <trkpt lat="45.34017" lon="4.78451">
        <ele>151.1999969</ele>
        <time>2013-04-23T14:29:59Z</time>
      </trkpt>
      <trkpt lat="45.33987" lon="4.78429">
        <ele>151.1999969</ele>
        <time>2013-04-23T14:30:50Z</time>
      </trkpt>
      <trkpt lat="45.33978" lon="4.78374">
        <ele>149.1999969</ele>
        <time>2013-04-23T14:30:57Z</time>
      </trkpt>
      <trkpt lat="45.33962" lon="4.78364">
        <ele>147.8000031</ele>
        <time>2013-04-23T14:31:00Z</time>
      </trkpt>
      <trkpt lat="45.32962" lon="4.78526">
        <ele>145</ele>
        <time>2013-04-23T14:33:58Z</time>
      </trkpt>
      <trkpt lat="45.32958" lon="4.7852">
        <ele>147</ele>
        <time>2013-04-23T14:34:03Z</time>
      </trkpt>
      <trkpt lat="45.32885" lon="4.78373">
        <ele>147</ele>
        <time>2013-04-23T14:34:53Z</time>
      </trkpt>
      <trkpt lat="45.3282" lon="4.78142">
        <ele>145</ele>
        <time>2013-04-23T14:40:52Z</time>
      </trkpt>
      <trkpt lat="45.32805" lon="4.7789">
        <ele>145</ele>
        <time>2013-04-23T14:41:29Z</time>
      </trkpt>
      <trkpt lat="45.32864" lon="4.77358">
        <ele>145</ele>
        <time>2013-04-23T14:42:42Z</time>
      </trkpt>
      <trkpt lat="45.32836" lon="4.77166">
        <ele>142.8000031</ele>
        <time>2013-04-23T14:43:09Z</time>
      </trkpt>
      <trkpt lat="45.32965" lon="4.77162">
        <ele>142.8000031</ele>
        <time>2013-04-23T14:43:37Z</time>
      </trkpt>
      <trkpt lat="45.33002" lon="4.76972">
        <ele>142.8000031</ele>
        <time>2013-04-23T14:44:10Z</time>
      </trkpt>
      <trkpt lat="45.32787" lon="4.76798">
        <ele>142.8000031</ele>
        <time>2013-04-23T14:44:58Z</time>
      </trkpt>
      <trkpt lat="45.32731" lon="4.76719">
        <ele>142.8000031</ele>
        <time>2013-04-23T14:46:05Z</time>
      </trkpt>
      <trkpt lat="45.32604" lon="4.76769">
        <ele>142.8000031</ele>
        <time>2013-04-23T14:46:36Z</time>
      </trkpt>
      <trkpt lat="45.32437" lon="4.76801">
        <ele>142.8000031</ele>
        <time>2013-04-23T14:47:09Z</time>
      </trkpt>
      <trkpt lat="45.32033" lon="4.76753">
        <ele>142.8000031</ele>
        <time>2013-04-23T14:48:29Z</time>
      </trkpt>
      <trkpt lat="45.32004" lon="4.76762">
        <ele>142.8000031</ele>
        <time>2013-04-23T14:48:35Z</time>
      </trkpt>
      <trkpt lat="45.31952" lon="4.76829">
        <ele>142.8000031</ele>
        <time>2013-04-23T14:48:51Z</time>
      </trkpt>
      <trkpt lat="45.31932" lon="4.76832">
        <ele>142.8000031</ele>
        <time>2013-04-23T14:49:05Z</time>
      </trkpt>
      <trkpt lat="45.31936" lon="4.76817">
        <ele>142.8000031</ele>
        <time>2013-04-23T14:49:17Z</time>
      </trkpt>
      <trkpt lat="45.31881" lon="4.76813">
        <ele>134.7421875</ele>
      </trkpt>
      <trkpt lat="45.31881" lon="4.76821">
        <ele>140.8000031</ele>
        <time>2013-04-23T14:55:19Z</time>
      </trkpt>
      <trkpt lat="45.31878" lon="4.76837">
        <ele>140.8000031</ele>
        <time>2013-04-23T14:55:20Z</time>
      </trkpt>
      <trkpt lat="45.31868" lon="4.7686">
        <ele>140.8000031</ele>
        <time>2013-04-23T14:55:25Z</time>
      </trkpt>
      <trkpt lat="45.31824" lon="4.76918">
        <ele>140.8000031</ele>
        <time>2013-04-23T14:55:51Z</time>
      </trkpt>
      <trkpt lat="45.31417" lon="4.77643">
        <ele>140.8000031</ele>
        <time>2013-04-23T14:59:57Z</time>
      </trkpt>
      <trkpt lat="45.31365" lon="4.77804">
        <ele>140.8000031</ele>
        <time>2013-04-23T15:00:49Z</time>
      </trkpt>
      <trkpt lat="45.31298" lon="4.77874">
        <ele>140.8000031</ele>
        <time>2013-04-23T15:01:12Z</time>
      </trkpt>
      <trkpt lat="45.31296" lon="4.77932">
        <ele>140.8000031</ele>
        <time>2013-04-23T15:01:25Z</time>
      </trkpt>
      <trkpt lat="45.31206" lon="4.7806">
        <ele>140.8000031</ele>
        <time>2013-04-23T15:01:54Z</time>
      </trkpt>
      <trkpt lat="45.311" lon="4.78403">
        <ele>140.8000031</ele>
        <time>2013-04-23T15:04:48Z</time>
      </trkpt>
      <trkpt lat="45.31109" lon="4.78478">
        <ele>140.8000031</ele>
        <time>2013-04-23T15:04:59Z</time>
      </trkpt>
      <trkpt lat="45.31048" lon="4.78556">
        <ele>140.8000031</ele>
        <time>2013-04-23T15:05:15Z</time>
      </trkpt>
      <trkpt lat="45.31031" lon="4.78606">
        <ele>140.8000031</ele>
        <time>2013-04-23T15:05:25Z</time>
      </trkpt>
      <trkpt lat="45.31007" lon="4.78605">
        <ele>140.8000031</ele>
        <time>2013-04-23T15:06:09Z</time>
      </trkpt>
      <trkpt lat="45.30887" lon="4.78774">
        <ele>140.8000031</ele>
        <time>2013-04-23T15:07:12Z</time>
      </trkpt>
      <trkpt lat="45.30839" lon="4.78887">
        <ele>140.8000031</ele>
        <time>2013-04-23T15:07:26Z</time>
      </trkpt>
      <trkpt lat="45.30779" lon="4.78977">
        <ele>140.8000031</ele>
        <time>2013-04-23T15:07:45Z</time>
      </trkpt>
      <trkpt lat="45.30736" lon="4.79199">
        <ele>140.8000031</ele>
        <time>2013-04-23T15:08:19Z</time>
      </trkpt>
      <trkpt lat="45.30728" lon="4.79337">
        <ele>142.8000031</ele>
        <time>2013-04-23T15:08:44Z</time>
      </trkpt>
      <trkpt lat="45.3075" lon="4.79421">
        <ele>144.8000031</ele>
        <time>2013-04-23T15:09:13Z</time>
      </trkpt>
      <trkpt lat="45.3075" lon="4.79424">
        <ele>144.8000031</ele>
        <time>2013-04-23T15:09:33Z</time>
      </trkpt>
      <trkpt lat="45.30634" lon="4.79518">
        <ele>147.3999939</ele>
        <time>2013-04-23T15:10:13Z</time>
      </trkpt>
      <trkpt lat="45.30621" lon="4.79599">
        <ele>151.1999969</ele>
        <time>2013-04-23T15:10:32Z</time>
      </trkpt>
      <trkpt lat="45.30627" lon="4.79626">
        <ele>151.1999969</ele>
        <time>2013-04-23T15:10:38Z</time>
      </trkpt>
      <trkpt lat="45.30755" lon="4.79973">
        <ele>151.1999969</ele>
        <time>2013-04-23T15:11:46Z</time>
      </trkpt>
      <trkpt lat="45.30765" lon="4.79999">
        <ele>147.1999969</ele>
        <time>2013-04-23T15:12:48Z</time>
      </trkpt>
      <trkpt lat="45.30792" lon="4.80153">
        <ele>147.1999969</ele>
        <time>2013-04-23T15:13:13Z</time>
      </trkpt>
      <trkpt lat="45.30784" lon="4.80174">
        <ele>145.8000031</ele>
        <time>2013-04-23T15:13:16Z</time>
      </trkpt>
      <trkpt lat="45.30769" lon="4.80178">
        <ele>145</ele>
        <time>2013-04-23T15:13:22Z</time>
      </trkpt>
      <trkpt lat="45.30766" lon="4.80149">
        <ele>143</ele>
        <time>2013-04-23T15:13:48Z</time>
      </trkpt>
      <trkpt lat="45.30752" lon="4.80154">
        <ele>143</ele>
        <time>2013-04-23T15:13:52Z</time>
      </trkpt>
      <trkpt lat="45.30413" lon="4.80393">
        <ele>143</ele>
        <time>2013-04-23T15:15:11Z</time>
      </trkpt>
      <trkpt lat="45.30376" lon="4.80395">
        <ele>143</ele>
        <time>2013-04-23T15:15:18Z</time>
      </trkpt>
      <trkpt lat="45.30246" lon="4.80308">
        <ele>143</ele>
        <time>2013-04-23T15:15:44Z</time>
      </trkpt>
      <trkpt lat="45.30179" lon="4.80313">
        <ele>143</ele>
        <time>2013-04-23T15:15:56Z</time>
      </trkpt>
      <trkpt lat="45.30064" lon="4.80419">
        <ele>141</ele>
        <time>2013-04-23T15:16:17Z</time>
      </trkpt>
      <trkpt lat="45.29662" lon="4.80835">
        <ele>141</ele>
        <time>2013-04-23T15:18:07Z</time>
      </trkpt>
      <trkpt lat="45.295" lon="4.80949">
        <ele>141</ele>
        <time>2013-04-23T15:22:48Z</time>
      </trkpt>
      <trkpt lat="45.2928" lon="4.81056">
        <ele>143</ele>
        <time>2013-04-23T15:24:06Z</time>
      </trkpt>
      <trkpt lat="45.29205" lon="4.81085">
        <ele>143</ele>
        <time>2013-04-23T15:24:25Z</time>
      </trkpt>
      <trkpt lat="45.28834" lon="4.81121">
        <ele>143</ele>
        <time>2013-04-23T15:25:38Z</time>
      </trkpt>
      <trkpt lat="45.28473" lon="4.81107">
        <ele>143</ele>
        <time>2013-04-23T15:26:44Z</time>
      </trkpt>
      <trkpt lat="45.28415" lon="4.81104">
        <ele>140.8000031</ele>
        <time>2013-04-23T15:26:53Z</time>
      </trkpt>
      <trkpt lat="45.27918" lon="4.81187">
        <ele>138.6000061</ele>
        <time>2013-04-23T15:28:33Z</time>
      </trkpt>
      <trkpt lat="45.27383" lon="4.81172">
        <ele>138.6000061</ele>
        <time>2013-04-23T15:29:51Z</time>
      </trkpt>
      <trkpt lat="45.27209" lon="4.81189">
        <ele>143</ele>
        <time>2013-04-23T15:30:26Z</time>
      </trkpt>
      <trkpt lat="45.27118" lon="4.81189">
        <ele>143</ele>
        <time>2013-04-23T15:31:01Z</time>
      </trkpt>
      <trkpt lat="45.26902" lon="4.81198">
        <ele>139</ele>
        <time>2013-04-23T15:31:38Z</time>
      </trkpt>
      <trkpt lat="45.26718" lon="4.81232">
        <ele>138.6000061</ele>
        <time>2013-04-23T15:32:11Z</time>
      </trkpt>
      <trkpt lat="45.26616" lon="4.81272">
        <ele>138.6000061</ele>
        <time>2013-04-23T15:32:50Z</time>
      </trkpt>
      <trkpt lat="45.26531" lon="4.81238">
        <ele>138.6000061</ele>
        <time>2013-04-23T15:33:10Z</time>
      </trkpt>
      <trkpt lat="45.26221" lon="4.8121">
        <ele>138.6000061</ele>
        <time>2013-04-23T15:34:12Z</time>
      </trkpt>
      <trkpt lat="45.26034" lon="4.81156">
        <ele>138.6000061</ele>
        <time>2013-04-23T15:34:46Z</time>
      </trkpt>
      <trkpt lat="45.25657" lon="4.80971">
        <ele>138.6000061</ele>
        <time>2013-04-23T15:36:38Z</time>
      </trkpt>
      <trkpt lat="45.25478" lon="4.80908">
        <ele>138.6000061</ele>
        <time>2013-04-23T15:37:17Z</time>
      </trkpt>
      <trkpt lat="45.2537" lon="4.80898">
        <ele>138.6000061</ele>
        <time>2013-04-23T15:37:40Z</time>
      </trkpt>
      <trkpt lat="45.25342" lon="4.80939">
        <ele>138.6000061</ele>
        <time>2013-04-23T15:37:49Z</time>
      </trkpt>
      <trkpt lat="45.25317" lon="4.80952">
        <ele>138.6000061</ele>
        <time>2013-04-23T15:37:55Z</time>
      </trkpt>
      <trkpt lat="45.25217" lon="4.80973">
        <ele>142.8000031</ele>
        <time>2013-04-23T15:38:25Z</time>
      </trkpt>
      <trkpt lat="45.25212" lon="4.81031">
        <ele>142.8000031</ele>
        <time>2013-04-23T15:40:37Z</time>
      </trkpt>
      <trkpt lat="45.25205" lon="4.81055">
        <ele>142.8000031</ele>
        <time>2013-04-23T15:40:42Z</time>
      </trkpt>
      <trkpt lat="45.25149" lon="4.81104">
        <ele>142.8000031</ele>
        <time>2013-04-23T15:41:06Z</time>
      </trkpt>
      <trkpt lat="45.2496" lon="4.80949">
        <ele>142.8000031</ele>
        <time>2013-04-23T15:42:56Z</time>
      </trkpt>
      <trkpt lat="45.24585" lon="4.80681">
        <ele>144.8000031</ele>
        <time>2013-04-23T15:44:07Z</time>
      </trkpt>
      <trkpt lat="45.24456" lon="4.80631">
        <ele>144.8000031</ele>
        <time>2013-04-23T15:44:34Z</time>
      </trkpt>
      <trkpt lat="45.24461" lon="4.80516">
        <ele>144.8000031</ele>
        <time>2013-04-23T15:45:22Z</time>
      </trkpt>
      <trkpt lat="45.24475" lon="4.80317">
        <ele>140.6000061</ele>
        <time>2013-04-23T15:45:43Z</time>
      </trkpt>
      <trkpt lat="45.24334" lon="4.8031">
        <ele>138.6000061</ele>
        <time>2013-04-23T15:46:16Z</time>
      </trkpt>
      <trkpt lat="45.2425" lon="4.8027">
        <ele>138.6000061</ele>
        <time>2013-04-23T15:49:36Z</time>
      </trkpt>
      <trkpt lat="45.24229" lon="4.80264">
        <ele>138.1999969</ele>
        <time>2013-04-23T15:49:43Z</time>
      </trkpt>
      <trkpt lat="45.2422" lon="4.80261">
        <ele>136.6000061</ele>
        <time>2013-04-23T15:49:47Z</time>
      </trkpt>
      <trkpt lat="45.23703" lon="4.80372">
        <ele>136.6000061</ele>
        <time>2013-04-23T15:53:00Z</time>
      </trkpt>
      <trkpt lat="45.23697" lon="4.80389">
        <ele>136.6000061</ele>
        <time>2013-04-23T15:53:37Z</time>
      </trkpt>
      <trkpt lat="45.23723" lon="4.80427">
        <ele>136.6000061</ele>
        <time>2013-04-23T15:55:42Z</time>
      </trkpt>
      <trkpt lat="45.23911" lon="4.80626">
        <ele>136.6000061</ele>
        <time>2013-04-23T15:56:42Z</time>
      </trkpt>
      <trkpt lat="45.23867" lon="4.80652">
        <ele>136.6000061</ele>
        <time>2013-04-23T15:57:34Z</time>
      </trkpt>
      <trkpt lat="45.23851" lon="4.80655">
        <ele>136.1999969</ele>
        <time>2013-04-23T15:57:45Z</time>
      </trkpt>
      <trkpt lat="45.23726" lon="4.80534">
        <ele>134.6000061</ele>
        <time>2013-04-23T15:58:26Z</time>
      </trkpt>
      <trkpt lat="45.23665" lon="4.805">
        <ele>134.6000061</ele>
        <time>2013-04-23T15:58:39Z</time>
      </trkpt>
      <trkpt lat="45.23351" lon="4.80424">
        <ele>134.6000061</ele>
        <time>2013-04-23T15:59:32Z</time>
      </trkpt>
      <trkpt lat="45.23211" lon="4.80441">
        <ele>134.6000061</ele>
        <time>2013-04-23T15:59:54Z</time>
      </trkpt>
      <trkpt lat="45.23056" lon="4.80425">
        <ele>136.6000061</ele>
        <time>2013-04-23T16:00:31Z</time>
      </trkpt>
      <trkpt lat="45.2292" lon="4.80405">
        <ele>136.6000061</ele>
        <time>2013-04-23T16:01:07Z</time>
      </trkpt>
      <trkpt lat="45.22829" lon="4.80416">
        <ele>136.6000061</ele>
        <time>2013-04-23T16:01:35Z</time>
      </trkpt>
      <trkpt lat="45.22621" lon="4.80488">
        <ele>136.6000061</ele>
        <time>2013-04-23T16:05:41Z</time>
      </trkpt>
      <trkpt lat="45.22242" lon="4.80689">
        <ele>136.6000061</ele>
        <time>2013-04-23T16:06:49Z</time>
      </trkpt>
      <trkpt lat="45.219" lon="4.80841">
        <ele>134.6000061</ele>
        <time>2013-04-23T16:08:08Z</time>
      </trkpt>
      <trkpt lat="45.21225" lon="4.81">
        <ele>134.6000061</ele>
        <time>2013-04-23T16:10:09Z</time>
      </trkpt>
      <trkpt lat="45.20898" lon="4.81164">
        <ele>134.6000061</ele>
        <time>2013-04-23T16:11:13Z</time>
      </trkpt>
      <trkpt lat="45.20837" lon="4.81227">
        <ele>134.6000061</ele>
        <time>2013-04-23T16:11:32Z</time>
      </trkpt>
      <trkpt lat="45.20535" lon="4.8139">
        <ele>134.6000061</ele>
        <time>2013-04-23T16:12:43Z</time>
      </trkpt>
      <trkpt lat="45.20336" lon="4.81394">
        <ele>134.6000061</ele>
        <time>2013-04-23T16:13:26Z</time>
      </trkpt>
      <trkpt lat="45.20226" lon="4.81336">
        <ele>134.6000061</ele>
        <time>2013-04-23T16:14:30Z</time>
      </trkpt>
      <trkpt lat="45.20187" lon="4.813">
        <ele>134.6000061</ele>
        <time>2013-04-23T16:14:41Z</time>
      </trkpt>
      <trkpt lat="45.20116" lon="4.81202">
        <ele>134.6000061</ele>
        <time>2013-04-23T16:15:02Z</time>
      </trkpt>
      <trkpt lat="45.19958" lon="4.80915">
        <ele>134.6000061</ele>
        <time>2013-04-23T16:15:49Z</time>
      </trkpt>
      <trkpt lat="45.19863" lon="4.80805">
        <ele>134.6000061</ele>
        <time>2013-04-23T16:16:09Z</time>
      </trkpt>
      <trkpt lat="45.19705" lon="4.8077">
        <ele>134.6000061</ele>
        <time>2013-04-23T16:16:44Z</time>
      </trkpt>
      <trkpt lat="45.19465" lon="4.80756">
        <ele>134.6000061</ele>
        <time>2013-04-23T16:18:21Z</time>
      </trkpt>
      <trkpt lat="45.19378" lon="4.80781">
        <ele>134.6000061</ele>
        <time>2013-04-23T16:18:39Z</time>
      </trkpt>
      <trkpt lat="45.1886" lon="4.81127">
        <ele>134.6000061</ele>
        <time>2013-04-23T16:20:28Z</time>
      </trkpt>
      <trkpt lat="45.18686" lon="4.81226">
        <ele>134.6000061</ele>
        <time>2013-04-23T16:23:49Z</time>
      </trkpt>
      <trkpt lat="45.18434" lon="4.81352">
        <ele>131</ele>
      </trkpt>
      <trkpt lat="45.1835" lon="4.80932">
        <ele>131</ele>
      </trkpt>
      <trkpt lat="45.18332" lon="4.80937">
        <ele>131</ele>
      </trkpt>
      <trkpt lat="45.18305" lon="4.81007">
        <ele>132</ele>
      </trkpt>
      <trkpt lat="45.18302" lon="4.81117">
        <ele>130</ele>
      </trkpt>
      <trkpt lat="45.18118" lon="4.81108">
        <ele>129</ele>
      </trkpt>
      <trkpt lat="45.17952" lon="4.8105">
        <ele>127</ele>
      </trkpt>
      <trkpt lat="45.17241" lon="4.80672">
        <ele>130</ele>
      </trkpt>
      <trkpt lat="45.17015" lon="4.80617">
        <ele>133</ele>
      </trkpt>
      <trkpt lat="45.16934" lon="4.80629">
        <ele>133</ele>
      </trkpt>
      <trkpt lat="45.16911" lon="4.80615">
        <ele>138</ele>
      </trkpt>
      <trkpt lat="45.16875" lon="4.80635">
        <ele>137</ele>
      </trkpt>
      <trkpt lat="45.16905" lon="4.80605">
        <ele>139</ele>
      </trkpt>
      <trkpt lat="45.16899" lon="4.80599">
        <ele>139</ele>
      </trkpt>
      <trkpt lat="45.16299" lon="4.81003">
        <ele>135</ele>
      </trkpt>
      <trkpt lat="45.16252" lon="4.81046">
        <ele>134</ele>
      </trkpt>
      <trkpt lat="45.1621" lon="4.81102">
        <ele>133</ele>
      </trkpt>
      <trkpt lat="45.16157" lon="4.81138">
        <ele>137</ele>
      </trkpt>
      <trkpt lat="45.16039" lon="4.81348">
        <ele>135</ele>
      </trkpt>
      <trkpt lat="45.16022" lon="4.81428">
        <ele>132</ele>
      </trkpt>
      <trkpt lat="45.15927" lon="4.81676">
        <ele>129</ele>
      </trkpt>
      <trkpt lat="45.15933" lon="4.81794">
        <ele>126</ele>
      </trkpt>
      <trkpt lat="45.15896" lon="4.82055">
        <ele>128</ele>
      </trkpt>
      <trkpt lat="45.15817" lon="4.82325">
        <ele>129</ele>
      </trkpt>
      <trkpt lat="45.15737" lon="4.82441">
        <ele>128</ele>
      </trkpt>
      <trkpt lat="45.15665" lon="4.82488">
        <ele>127</ele>
      </trkpt>
      <trkpt lat="45.15523" lon="4.82513">
        <ele>127</ele>
      </trkpt>
      <trkpt lat="45.1537" lon="4.82468">
        <ele>127</ele>
      </trkpt>
      <trkpt lat="45.15053" lon="4.82212">
        <ele>123</ele>
      </trkpt>
      <trkpt lat="45.14779" lon="4.81962">
        <ele>126</ele>
      </trkpt>
      <trkpt lat="45.14241" lon="4.81412">
        <ele>123</ele>
      </trkpt>
      <trkpt lat="45.14171" lon="4.81328">
        <ele>123</ele>
      </trkpt>
      <trkpt lat="45.1414" lon="4.8125">
        <ele>124</ele>
      </trkpt>
      <trkpt lat="45.14108" lon="4.81245">
        <ele>126</ele>
      </trkpt>
      <trkpt lat="45.14076" lon="4.8121">
        <ele>128</ele>
      </trkpt>
      <trkpt lat="45.13909" lon="4.80971">
        <ele>129</ele>
      </trkpt>
      <trkpt lat="45.13869" lon="4.809">
        <ele>128</ele>
      </trkpt>
      <trkpt lat="45.13866" lon="4.80855">
        <ele>128</ele>
      </trkpt>
      <trkpt lat="45.13809" lon="4.80717">
        <ele>126</ele>
      </trkpt>
      <trkpt lat="45.13688" lon="4.80508">
        <ele>124</ele>
      </trkpt>
      <trkpt lat="45.13483" lon="4.80305">
        <ele>129</ele>
      </trkpt>
      <trkpt lat="45.13376" lon="4.80269">
        <ele>125</ele>
      </trkpt>
      <trkpt lat="45.13139" lon="4.8025">
        <ele>124</ele>
      </trkpt>
      <trkpt lat="45.12757" lon="4.8017">
        <ele>127</ele>
      </trkpt>
      <trkpt lat="45.12509" lon="4.80141">
        <ele>126</ele>
      </trkpt>
      <trkpt lat="45.12407" lon="4.80104">
        <ele>126</ele>
      </trkpt>
      <trkpt lat="45.12233" lon="4.80104">
        <ele>126</ele>
      </trkpt>
      <trkpt lat="45.12087" lon="4.80173">
        <ele>123</ele>
      </trkpt>
      <trkpt lat="45.12046" lon="4.80365">
        <ele>122</ele>
      </trkpt>
      <trkpt lat="45.11983" lon="4.80462">
        <ele>122</ele>
      </trkpt>
      <trkpt lat="45.11856" lon="4.80602">
        <ele>121</ele>
      </trkpt>
      <trkpt lat="45.11616" lon="4.80779">
        <ele>123</ele>
      </trkpt>
      <trkpt lat="45.11382" lon="4.80986">
        <ele>124</ele>
      </trkpt>
      <trkpt lat="45.11348" lon="4.81034">
        <ele>124</ele>
      </trkpt>
      <trkpt lat="45.11254" lon="4.81083">
        <ele>123</ele>
      </trkpt>
      <trkpt lat="45.11201" lon="4.81142">
        <ele>123</ele>
      </trkpt>
      <trkpt lat="45.11163" lon="4.81219">
        <ele>121</ele>
      </trkpt>
      <trkpt lat="45.11041" lon="4.81249">
        <ele>121</ele>
      </trkpt>
      <trkpt lat="45.10957" lon="4.81316">
        <ele>121</ele>
      </trkpt>
      <trkpt lat="45.10772" lon="4.81672">
        <ele>122</ele>
      </trkpt>
      <trkpt lat="45.10601" lon="4.81847">
        <ele>122</ele>
      </trkpt>
      <trkpt lat="45.10553" lon="4.8191">
        <ele>122</ele>
      </trkpt>
      <trkpt lat="45.10411" lon="4.82036">
        <ele>122</ele>
      </trkpt>
      <trkpt lat="45.10357" lon="4.82104">
        <ele>122</ele>
      </trkpt>
      <trkpt lat="45.10343" lon="4.82146">
        <ele>123</ele>
      </trkpt>
      <trkpt lat="45.1027" lon="4.82231">
        <ele>124</ele>
      </trkpt>
      <trkpt lat="45.10248" lon="4.82293">
        <ele>126</ele>
      </trkpt>
      <trkpt lat="45.10031" lon="4.82418">
        <ele>123</ele>
      </trkpt>
      <trkpt lat="45.09648" lon="4.82587">
        <ele>123</ele>
      </trkpt>
      <trkpt lat="45.09592" lon="4.82728">
        <ele>125</ele>
      </trkpt>
      <trkpt lat="45.09464" lon="4.82855">
        <ele>122</ele>
      </trkpt>
      <trkpt lat="45.09338" lon="4.82884">
        <ele>122</ele>
      </trkpt>
      <trkpt lat="45.09156" lon="4.82974">
        <ele>122</ele>
      </trkpt>
      <trkpt lat="45.08958" lon="4.83038">
        <ele>121</ele>
      </trkpt>
      <trkpt lat="45.08819" lon="4.83049">
        <ele>121</ele>
      </trkpt>
      <trkpt lat="45.087" lon="4.83032">
        <ele>122</ele>
      </trkpt>
      <trkpt lat="45.0855" lon="4.8297">
        <ele>122</ele>
      </trkpt>
      <trkpt lat="45.08436" lon="4.82872">
        <ele>124</ele>
      </trkpt>
      <trkpt lat="45.08134" lon="4.82684">
        <ele>120</ele>
      </trkpt>
      <trkpt lat="45.08059" lon="4.82657">
        <ele>123</ele>
      </trkpt>
      <trkpt lat="45.08036" lon="4.82626">
        <ele>123</ele>
      </trkpt>
      <trkpt lat="45.07758" lon="4.82604">
        <ele>122</ele>
      </trkpt>
      <trkpt lat="45.07689" lon="4.82556">
        <ele>125</ele>
      </trkpt>
      <trkpt lat="45.07638" lon="4.82481">
        <ele>123</ele>
      </trkpt>
      <trkpt lat="45.0762" lon="4.82417">
        <ele>122</ele>
      </trkpt>
      <trkpt lat="45.07621" lon="4.8236">
        <ele>120</ele>
      </trkpt>
      <trkpt lat="45.07674" lon="4.82258">
        <ele>120</ele>
      </trkpt>
      <trkpt lat="45.0768" lon="4.82223">
        <ele>120</ele>
      </trkpt>
      <trkpt lat="45.07523" lon="4.81652">
        <ele>121</ele>
      </trkpt>
      <trkpt lat="45.07403" lon="4.81744">
        <ele>123</ele>
      </trkpt>
      <trkpt lat="45.07361" lon="4.81822">
        <ele>122</ele>
      </trkpt>
      <trkpt lat="45.07258" lon="4.82173">
        <ele>125</ele>
      </trkpt>
      <trkpt lat="45.07292" lon="4.82307">
        <ele>124</ele>
      </trkpt>
      <trkpt lat="45.07274" lon="4.825">
        <ele>122</ele>
      </trkpt>
      <trkpt lat="45.07217" lon="4.82668">
        <ele>122</ele>
      </trkpt>
      <trkpt lat="45.07143" lon="4.82786">
        <ele>123</ele>
      </trkpt>
      <trkpt lat="45.07084" lon="4.82851">
        <ele>122</ele>
      </trkpt>
      <trkpt lat="45.07114" lon="4.82914">
        <ele>121</ele>
      </trkpt>
      <trkpt lat="45.07054" lon="4.82962">
        <ele>121</ele>
      </trkpt>
      <trkpt lat="45.06995" lon="4.83035">
        <ele>120</ele>
      </trkpt>
      <trkpt lat="45.06907" lon="4.83189">
        <ele>123</ele>
      </trkpt>
      <trkpt lat="45.06545" lon="4.8398">
        <ele>119</ele>
      </trkpt>
      <trkpt lat="45.06537" lon="4.84023">
        <ele>118</ele>
      </trkpt>
      <trkpt lat="45.06777" lon="4.83463">
        <ele>124</ele>
      </trkpt>
      <trkpt lat="45.06538" lon="4.84002">
        <ele>119</ele>
      </trkpt>
      <trkpt lat="45.06547" lon="4.8405">
        <ele>118</ele>
      </trkpt>
      <trkpt lat="45.0647" lon="4.84369">
        <ele>116</ele>
      </trkpt>
      <trkpt lat="45.0642" lon="4.84671">
        <ele>120</ele>
      </trkpt>
      <trkpt lat="45.06335" lon="4.85003">
        <ele>120</ele>
      </trkpt>
      <trkpt lat="45.06267" lon="4.85199">
        <ele>116</ele>
      </trkpt>
      <trkpt lat="45.062" lon="4.85344">
        <ele>117</ele>
      </trkpt>
      <trkpt lat="45.06035" lon="4.85598">
        <ele>116</ele>
      </trkpt>
      <trkpt lat="45.05937" lon="4.85683">
        <ele>116</ele>
      </trkpt>
      <trkpt lat="45.058" lon="4.85736">
        <ele>116</ele>
      </trkpt>
      <trkpt lat="45.05659" lon="4.8573">
        <ele>116</ele>
      </trkpt>
      <trkpt lat="45.05485" lon="4.85681">
        <ele>119</ele>
      </trkpt>
      <trkpt lat="45.05331" lon="4.85601">
        <ele>118</ele>
      </trkpt>
      <trkpt lat="45.05147" lon="4.85457">
        <ele>120</ele>
      </trkpt>
      <trkpt lat="45.04727" lon="4.85004">
        <ele>116</ele>
      </trkpt>
      <trkpt lat="45.04553" lon="4.84797">
        <ele>114</ele>
      </trkpt>
      <trkpt lat="45.0439" lon="4.84565">
        <ele>122</ele>
      </trkpt>
      <trkpt lat="45.0428" lon="4.84439">
        <ele>117</ele>
      </trkpt>
      <trkpt lat="45.04301" lon="4.84378">
        <ele>117</ele>
      </trkpt>
      <trkpt lat="45.04289" lon="4.84359">
        <ele>117</ele>
      </trkpt>
      <trkpt lat="45.03729" lon="4.83817">
        <ele>117</ele>
      </trkpt>
      <trkpt lat="45.03504" lon="4.83669">
        <ele>117</ele>
      </trkpt>
      <trkpt lat="45.03271" lon="4.83581">
        <ele>116</ele>
      </trkpt>
      <trkpt lat="45.03173" lon="4.8357">
        <ele>116</ele>
      </trkpt>
      <trkpt lat="45.02921" lon="4.83609">
        <ele>117</ele>
      </trkpt>
      <trkpt lat="45.02818" lon="4.83648">
        <ele>118</ele>
      </trkpt>
      <trkpt lat="45.02719" lon="4.83707">
        <ele>117</ele>
      </trkpt>
      <trkpt lat="45.02561" lon="4.83849">
        <ele>114</ele>
      </trkpt>
      <trkpt lat="45.02286" lon="4.84181">
        <ele>114</ele>
      </trkpt>
      <trkpt lat="45.02142" lon="4.84272">
        <ele>115</ele>
      </trkpt>
      <trkpt lat="45.02012" lon="4.84303">
        <ele>117</ele>
      </trkpt>
      <trkpt lat="45.01881" lon="4.84288">
        <ele>115</ele>
      </trkpt>
      <trkpt lat="45.01808" lon="4.84256">
        <ele>113</ele>
      </trkpt>
      <trkpt lat="45.01717" lon="4.84196">
        <ele>114</ele>
      </trkpt>
      <trkpt lat="45.01626" lon="4.84098">
        <ele>114</ele>
      </trkpt>
      <trkpt lat="45.01575" lon="4.84079">
        <ele>116</ele>
      </trkpt>
      <trkpt lat="45.01511" lon="4.84001">
        <ele>116</ele>
      </trkpt>
      <trkpt lat="45.01457" lon="4.83965">
        <ele>115</ele>
      </trkpt>
      <trkpt lat="45.01409" lon="4.83888">
        <ele>115</ele>
      </trkpt>
      <trkpt lat="45.01334" lon="4.83718">
        <ele>118</ele>
      </trkpt>
      <trkpt lat="45.01269" lon="4.8363">
        <ele>114</ele>
      </trkpt>
      <trkpt lat="45.01212" lon="4.83582">
        <ele>114</ele>
      </trkpt>
      <trkpt lat="45.01184" lon="4.83581">
        <ele>114</ele>
      </trkpt>
      <trkpt lat="45.0114" lon="4.83629">
        <ele>112</ele>
      </trkpt>
      <trkpt lat="45.01066" lon="4.83758">
        <ele>111</ele>
      </trkpt>
      <trkpt lat="45.01009" lon="4.84107">
        <ele>117</ele>
      </trkpt>
      <trkpt lat="45.01015" lon="4.84137">
        <ele>117</ele>
      </trkpt>
      <trkpt lat="45.01056" lon="4.84153">
        <ele>116</ele>
      </trkpt>
      <trkpt lat="45.01074" lon="4.84186">
        <ele>116</ele>
      </trkpt>
      <trkpt lat="45.01081" lon="4.84553">
        <ele>117</ele>
      </trkpt>
      <trkpt lat="45.01109" lon="4.84614">
        <ele>118</ele>
      </trkpt>
      <trkpt lat="45.01255" lon="4.84793">
        <ele>119</ele>
      </trkpt>
      <trkpt lat="45.01274" lon="4.84833">
        <ele>119</ele>
      </trkpt>
      <trkpt lat="45.01342" lon="4.85072">
        <ele>119</ele>
      </trkpt>
      <trkpt lat="45.01487" lon="4.85451">
        <ele>114</ele>
      </trkpt>
      <trkpt lat="45.01469" lon="4.85468">
        <ele>121.4000015</ele>
        <time>2013-04-24T09:42:57Z</time>
      </trkpt>
      <trkpt lat="45.01274" lon="4.85598">
        <ele>121.4000015</ele>
        <time>2013-04-24T09:43:51Z</time>
      </trkpt>
      <trkpt lat="45.0054" lon="4.86016">
        <ele>121.4000015</ele>
        <time>2013-04-24T09:48:11Z</time>
      </trkpt>
      <trkpt lat="44.99295" lon="4.86716">
        <ele>118.8000031</ele>
        <time>2013-04-24T11:21:37Z</time>
      </trkpt>
      <trkpt lat="44.99292" lon="4.86745">
        <ele>118.8000031</ele>
        <time>2013-04-24T11:21:44Z</time>
      </trkpt>
      <trkpt lat="44.99523" lon="4.8689">
        <ele>119.1999969</ele>
        <time>2013-04-24T11:22:36Z</time>
      </trkpt>
      <trkpt lat="44.99447" lon="4.87041">
        <ele>123</ele>
        <time>2013-04-24T11:24:43Z</time>
      </trkpt>
      <trkpt lat="44.99408" lon="4.87109">
        <ele>123</ele>
        <time>2013-04-24T11:24:57Z</time>
      </trkpt>
      <trkpt lat="44.99081" lon="4.86968">
        <ele>120.8000031</ele>
        <time>2013-04-24T11:25:51Z</time>
      </trkpt>
      <trkpt lat="44.98982" lon="4.86874">
        <ele>120.8000031</ele>
        <time>2013-04-24T11:26:10Z</time>
      </trkpt>
      <trkpt lat="44.98659" lon="4.86662">
        <ele>120.8000031</ele>
        <time>2013-04-24T11:27:12Z</time>
      </trkpt>
      <trkpt lat="44.98593" lon="4.86595">
        <ele>120.8000031</ele>
        <time>2013-04-24T11:27:26Z</time>
      </trkpt>
      <trkpt lat="44.985" lon="4.86462">
        <ele>120.8000031</ele>
        <time>2013-04-24T11:27:49Z</time>
      </trkpt>
      <trkpt lat="44.98315" lon="4.86087">
        <ele>120.8000031</ele>
        <time>2013-04-24T11:28:48Z</time>
      </trkpt>
      <trkpt lat="44.98263" lon="4.86005">
        <ele>120.8000031</ele>
        <time>2013-04-24T11:29:02Z</time>
      </trkpt>
      <trkpt lat="44.98142" lon="4.85889">
        <ele>120.8000031</ele>
        <time>2013-04-24T11:29:29Z</time>
      </trkpt>
      <trkpt lat="44.98013" lon="4.8584">
        <ele>120.8000031</ele>
        <time>2013-04-24T11:29:54Z</time>
      </trkpt>
      <trkpt lat="44.97818" lon="4.8584">
        <ele>120.8000031</ele>
        <time>2013-04-24T11:30:33Z</time>
      </trkpt>
      <trkpt lat="44.97693" lon="4.85868">
        <ele>120.8000031</ele>
        <time>2013-04-24T11:30:57Z</time>
      </trkpt>
      <trkpt lat="44.97397" lon="4.86029">
        <ele>120.8000031</ele>
        <time>2013-04-24T11:32:10Z</time>
      </trkpt>
      <trkpt lat="44.97429" lon="4.86146">
        <ele>122.8000031</ele>
        <time>2013-04-24T11:32:32Z</time>
      </trkpt>
      <trkpt lat="44.97385" lon="4.86198">
        <ele>122.8000031</ele>
        <time>2013-04-24T11:32:42Z</time>
      </trkpt>
      <trkpt lat="44.97351" lon="4.86279">
        <ele>122.8000031</ele>
        <time>2013-04-24T11:32:53Z</time>
      </trkpt>
      <trkpt lat="44.9724" lon="4.86762">
        <ele>129.1999969</ele>
        <time>2013-04-24T11:34:27Z</time>
      </trkpt>
      <trkpt lat="44.9719" lon="4.86968">
        <ele>129.1999969</ele>
        <time>2013-04-24T11:35:00Z</time>
      </trkpt>
      <trkpt lat="44.97056" lon="4.87369">
        <ele>129.1999969</ele>
        <time>2013-04-24T11:36:12Z</time>
      </trkpt>
      <trkpt lat="44.97002" lon="4.87479">
        <ele>129.1999969</ele>
        <time>2013-04-24T11:36:36Z</time>
      </trkpt>
      <trkpt lat="44.96827" lon="4.87467">
        <ele>129.1999969</ele>
        <time>2013-04-24T11:37:12Z</time>
      </trkpt>
      <trkpt lat="44.96773" lon="4.87462">
        <ele>127.1999969</ele>
        <time>2013-04-24T11:37:22Z</time>
      </trkpt>
      <trkpt lat="44.96728" lon="4.87444">
        <ele>126.8000031</ele>
        <time>2013-04-24T11:37:29Z</time>
      </trkpt>
      <trkpt lat="44.96688" lon="4.87385">
        <ele>124.5999985</ele>
        <time>2013-04-24T11:37:38Z</time>
      </trkpt>
      <trkpt lat="44.96592" lon="4.87288">
        <ele>122.5999985</ele>
        <time>2013-04-24T11:37:59Z</time>
      </trkpt>
      <trkpt lat="44.96521" lon="4.87262">
        <ele>122.5999985</ele>
        <time>2013-04-24T11:38:13Z</time>
      </trkpt>
      <trkpt lat="44.9649" lon="4.87178">
        <ele>122.5999985</ele>
        <time>2013-04-24T11:38:29Z</time>
      </trkpt>
      <trkpt lat="44.96448" lon="4.87115">
        <ele>122.5999985</ele>
        <time>2013-04-24T11:38:48Z</time>
      </trkpt>
      <trkpt lat="44.96408" lon="4.87147">
        <ele>122.5999985</ele>
        <time>2013-04-24T11:39:19Z</time>
      </trkpt>
      <trkpt lat="44.96347" lon="4.87156">
        <ele>122.5999985</ele>
        <time>2013-04-24T11:39:34Z</time>
      </trkpt>
      <trkpt lat="44.9624" lon="4.87309">
        <ele>122.5999985</ele>
        <time>2013-04-24T11:40:09Z</time>
      </trkpt>
      <trkpt lat="44.96244" lon="4.8735">
        <ele>122.5999985</ele>
        <time>2013-04-24T11:40:18Z</time>
      </trkpt>
      <trkpt lat="44.96269" lon="4.87401">
        <ele>120.4000015</ele>
        <time>2013-04-24T11:40:28Z</time>
      </trkpt>
      <trkpt lat="44.96239" lon="4.87444">
        <ele>120.4000015</ele>
        <time>2013-04-24T11:41:14Z</time>
      </trkpt>
      <trkpt lat="44.96219" lon="4.87452">
        <ele>120.4000015</ele>
        <time>2013-04-24T11:41:21Z</time>
      </trkpt>
      <trkpt lat="44.96027" lon="4.87715">
        <ele>120.4000015</ele>
        <time>2013-04-24T11:43:54Z</time>
      </trkpt>
      <trkpt lat="44.95981" lon="4.87756">
        <ele>120.4000015</ele>
        <time>2013-04-24T11:44:32Z</time>
      </trkpt>
      <trkpt lat="44.95836" lon="4.87864">
        <ele>116.4000015</ele>
        <time>2013-04-24T11:45:50Z</time>
      </trkpt>
      <trkpt lat="44.95688" lon="4.87956">
        <ele>116.4000015</ele>
        <time>2013-04-24T11:46:28Z</time>
      </trkpt>
    </trkseg>
  </trk>
</gpx>